Normandy Park, WA

5:45 PM PDT on August 29, 2014 (GMT -0700)
Seattle-Tacoma International | Change Station
CLOSE
Current Station
Airport
Location: Seattle,
Elevation: 433 ft
Nearby Weather Stations

Elev 433 ft 47.44 °N, 122.31 °W | Updated 52 minutes ago

Mostly Cloudy
Mostly Cloudy
70 °F
Feels Like 70 °F
N
12
Wind Variable Wind from South

Today
High -- | Low -- °F
--% Chance of Precip.
Yesterday
High -- | Low -- °F
Precip. -- in
6:24 AM 7:55 PM
Waxing Crescent, 17% visible
Pressure 29.99 in
Visibility 10.0 miles
Clouds Few 3500 ft
Scattered Clouds 5500 ft
Mostly Cloudy 14000 ft
Mostly Cloudy 22000 ft
Dew Point 54 °F
Humidity 57%
Rainfall 0.00 in
Snow Depth Not available.
UV 2 out of 12
Pollen 2.40 out of 12
Air Quality Not available.
Flu Activity Not available.
METAR KSEA 292353Z 19010KT 10SM FEW035 SCT055 BKN140 BKN220 21/12 A2997 RMK AO2 SLP153 60000 T02110122 10228 20178 58012 $

More Conditions Fewer Conditions

Pressure 29.99 in
Visibility 10.0 miles
Clouds Few 3500 ft
Scattered Clouds 5500 ft
Mostly Cloudy 14000 ft
Mostly Cloudy 22000 ft
Dew Point 54 °F
Humidity 57%
Rainfall 0.00 in
Snow Depth Not available.
UV 2 out of 12
Pollen 2.40 out of 12
Air Quality Not available.
Flu Activity Not available.
METAR KSEA 292353Z 19010KT 10SM FEW035 SCT055 BKN140 BKN220 21/12 A2997 RMK AO2 SLP153 60000 T02110122 10228 20178 58012 $

More Conditions Fewer Conditions

10-Day Weather Forecast

Almanac

Astronomy

Aug. 29, 2014 Rise Set
Actual Time 6:24 AM PDT 7:55 PM PDT
Civil Twilight 5:52 AM PDT 8:27 PM PDT
Nautical Twilight 5:13 AM PDT 9:06 PM PDT
Astronomical Twilight 4:30 AM PDT 9:47 PM PDT
Moon 10:37 AM PDT (8/29) 9:35 PM PDT (8/29)
Length of Visible Light 14h 35m
Length of Day
13h 30m
Tomorrow will be 3m 16s shorter.
Waxing Crescent, 17% of the Moon is Illuminated
Today
Waxing Crescent
Sep 2
First Quarter
Sep 8
Full
Sep 15
Last Quarter
Sep 24
New

Today's Extremes

State Highs State Lows

Community

WunderPhotos

Upload Photos

1,748,390 photos uploaded!

Nearby

Air Quality

  Air Quality AQ Index Pollutant
Friday Good
OZONE
Friday Good
PM2.5
Saturday Good
OZONE
Saturday Good
PM2.5
Sunday Good
OZONE
Sunday Good
PM2.5
Monday Good
OZONE
Monday Good
PM2.5
Tuesday Good
OZONE
Tuesday Good
PM2.5
Wednesday Good
OZONE
Wednesday Good
PM2.5

Snow Depth

Station Depth Elevation
Rex River 0 in 4000 ft
Burnt Mountain 0 in 4200 ft
Alpine Meadows 0 in 3500 ft
Meadows Pass 0 in 3500 ft
Olallie Meadows 2 in 3700 ft

Earthquake Activity

City Distance Mag. Time & Date
No recent earthquake activity has been reported nearby.
Minimum magnitude displayed is 2.5.

Coastal Water Temperatures

Place Temperature
Port Townsend, WA 54.0 °F
Seattle, WA 55.9 °F
Friday Harbor, WA 53.1 °F
Tacoma, WA 55.0 °F

Nearby Weather Stations